Time,TemperatureF,DewpointF,PressureIn,WindDirection,WindDirectionDegrees,WindSpeedMPH,WindSpeedGustMPH,Humidity,HourlyPrecipIn,Conditions,Clouds,dailyrainin,SolarRadiationWatts/m^2,SoftwareType,DateUTC
2013-03-11 00:13:00,56.2,53.0,30.16,East,80,0.0,0.0,90,0.00,,,0.00,0,weatherlink.com 1.10,2013-03-11 04:13:00,
2013-03-11 00:28:00,56.0,53.0,30.16,East,80,0.0,0.0,90,0.00,,,0.00,0,weatherlink.com 1.10,2013-03-11 04:28:00,
2013-03-11 00:44:00,55.7,53.0,30.15,East,80,0.0,0.0,90,0.00,,,0.00,0,weatherlink.com 1.10,2013-03-11 04:44:00,
2013-03-11 00:58:00,55.5,53.0,30.15,East,80,0.0,0.0,91,0.00,,,0.00,0,weatherlink.com 1.10,2013-03-11 04:58:00,
2013-03-11 01:13:00,55.4,53.0,30.15,East,80,0.0,0.0,91,0.00,,,0.00,0,weatherlink.com 1.10,2013-03-11 05:13:00,
2013-03-11 01:29:00,55.1,53.0,30.14,East,80,0.0,0.0,92,0.00,,,0.00,0,weatherlink.com 1.10,2013-03-11 05:29:00,
2013-03-11 01:44:00,54.8,53.0,30.14,East,80,0.0,0.0,92,0.00,,,0.00,0,weatherlink.com 1.10,2013-03-11 05:44:00,
2013-03-11 01:59:00,54.6,52.0,30.13,East,80,0.0,0.0,92,0.00,,,0.00,0,weatherlink.com 1.10,2013-03-11 05:59:00,
2013-03-11 02:14:00,54.5,52.0,30.13,East,80,0.0,0.0,92,0.00,,,0.00,0,weatherlink.com 1.10,2013-03-11 06:14:00,
2013-03-11 02:29:00,54.1,52.0,30.13,East,80,0.0,0.0,92,0.00,,,0.00,0,weatherlink.com 1.10,2013-03-11 06:29:00,
2013-03-11 02:44:00,54.1,52.0,30.12,East,80,0.0,1.0,93,0.00,,,0.00,0,weatherlink.com 1.10,2013-03-11 06:44:00,
2013-03-11 02:59:00,53.8,52.0,30.11,East,80,0.0,0.0,93,0.00,,,0.00,0,weatherlink.com 1.10,2013-03-11 06:59:00,
2013-03-11 03:14:00,53.6,52.0,30.11,East,80,0.0,0.0,93,0.00,,,0.00,0,weatherlink.com 1.10,2013-03-11 07:14:00,
2013-03-11 03:29:00,53.5,52.0,30.10,East,80,0.0,0.0,93,0.00,,,0.00,0,weatherlink.com 1.10,2013-03-11 07:29:00,
2013-03-11 03:45:00,53.2,51.0,30.10,East,80,0.0,0.0,93,0.00,,,0.00,0,weatherlink.com 1.10,2013-03-11 07:45:00,
2013-03-11 04:00:00,53.0,51.0,30.10,East,80,0.0,0.0,94,0.00,,,0.00,0,weatherlink.com 1.10,2013-03-11 08:00:00,
2013-03-11 04:15:00,52.7,51.0,30.09,East,80,0.0,0.0,94,0.00,,,0.00,0,weatherlink.com 1.10,2013-03-11 08:15:00,
2013-03-11 04:30:00,52.8,52.0,30.09,East,80,0.0,0.0,95,0.00,,,0.00,0,weatherlink.com 1.10,2013-03-11 08:30:00,
2013-03-11 04:45:00,53.1,52.0,30.09,East,80,0.0,0.0,95,0.00,,,0.00,0,weatherlink.com 1.10,2013-03-11 08:45:00,
2013-03-11 05:00:00,53.6,53.0,30.08,East,80,0.0,0.0,96,0.00,,,0.00,0,weatherlink.com 1.10,2013-03-11 09:00:00,
2013-03-11 05:15:00,54.0,53.0,30.08,East,80,0.0,0.0,96,0.00,,,0.00,0,weatherlink.com 1.10,2013-03-11 09:15:00,
2013-03-11 05:30:00,54.0,53.0,30.07,East,80,0.0,0.0,95,0.00,,,0.00,0,weatherlink.com 1.10,2013-03-11 09:30:00,
2013-03-11 05:45:00,53.8,52.0,30.08,East,80,0.0,0.0,95,0.00,,,0.00,0,weatherlink.com 1.10,2013-03-11 09:45:00,
2013-03-11 06:01:00,53.4,52.0,30.08,East,80,0.0,0.0,94,0.00,,,0.00,0,weatherlink.com 1.10,2013-03-11 10:01:00,
2013-03-11 06:16:00,53.1,52.0,30.08,East,80,0.0,0.0,94,0.00,,,0.00,0,weatherlink.com 1.10,2013-03-11 10:16:00,
2013-03-11 06:31:00,52.8,51.0,30.08,East,80,0.0,0.0,94,0.00,,,0.00,0,weatherlink.com 1.10,2013-03-11 10:31:00,
2013-03-11 06:46:00,52.5,51.0,30.08,East,80,0.0,0.0,94,0.00,,,0.00,0,weatherlink.com 1.10,2013-03-11 10:46:00,
2013-03-11 07:01:00,52.3,51.0,30.07,East,80,0.0,0.0,94,0.00,,,0.00,0,weatherlink.com 1.10,2013-03-11 11:01:00,
2013-03-11 07:16:00,52.1,51.0,30.08,East,80,0.0,0.0,94,0.00,,,0.00,0,weatherlink.com 1.10,2013-03-11 11:16:00,
2013-03-11 07:32:00,51.8,51.0,30.08,East,80,0.0,0.0,95,0.00,,,0.00,0,weatherlink.com 1.10,2013-03-11 11:32:00,
2013-03-11 08:01:00,52.0,51.0,30.09,East,80,0.0,0.0,96,0.00,,,0.00,23,weatherlink.com 1.10,2013-03-11 12:01:00,
2013-03-11 08:17:00,52.7,52.0,30.09,East,80,0.0,0.0,96,0.00,,,0.00,33,weatherlink.com 1.10,2013-03-11 12:17:00,
2013-03-11 08:33:00,53.6,53.0,30.09,East,80,0.0,0.0,96,0.00,,,0.00,60,weatherlink.com 1.10,2013-03-11 12:33:00,
2013-03-11 08:47:00,55.2,54.0,30.10,East,80,0.0,0.0,97,0.00,,,0.00,197,weatherlink.com 1.10,2013-03-11 12:47:00,
2013-03-11 09:02:00,58.7,58.0,30.10,East,80,0.0,1.0,97,0.00,,,0.00,257,weatherlink.com 1.10,2013-03-11 13:02:00,
2013-03-11 09:17:00,63.1,61.0,30.10,ESE,112,2.0,2.0,91,0.00,,,0.00,306,weatherlink.com 1.10,2013-03-11 13:17:00,
2013-03-11 09:32:00,67.2,61.0,30.10,SW,219,2.0,7.0,79,0.00,,,0.00,401,weatherlink.com 1.10,2013-03-11 13:32:00,
2013-03-11 09:48:00,70.3,60.0,30.10,East,101,3.0,5.0,71,0.00,,,0.00,445,weatherlink.com 1.10,2013-03-11 13:48:00,
2013-03-11 10:03:00,72.0,59.0,30.10,SE,133,2.0,10.0,63,0.00,,,0.00,397,weatherlink.com 1.10,2013-03-11 14:03:00,
2013-03-11 10:18:00,73.3,59.0,30.10,SSE,148,2.0,7.0,61,0.00,,,0.00,522,weatherlink.com 1.10,2013-03-11 14:18:00,
2013-03-11 10:33:00,74.3,58.0,30.10,SW,236,4.0,9.0,57,0.00,,,0.00,585,weatherlink.com 1.10,2013-03-11 14:33:00,
2013-03-11 10:48:00,74.8,58.0,30.10,SW,219,1.0,9.0,56,0.00,,,0.00,622,weatherlink.com 1.10,2013-03-11 14:48:00,
2013-03-11 11:03:00,75.4,58.0,30.09,North,5,1.0,11.0,56,0.00,,,0.00,680,weatherlink.com 1.10,2013-03-11 15:03:00,
2013-03-11 11:18:00,76.0,58.0,30.09,South,174,2.0,8.0,54,0.00,,,0.00,773,weatherlink.com 1.10,2013-03-11 15:18:00,
2013-03-11 11:34:00,77.6,58.0,30.09,ENE,78,2.0,7.0,52,0.00,,,0.00,791,weatherlink.com 1.10,2013-03-11 15:34:00,
2013-03-11 11:49:00,78.0,59.0,30.09,ESE,117,4.0,10.0,52,0.00,,,0.00,824,weatherlink.com 1.10,2013-03-11 15:49:00,
2013-03-11 12:04:00,76.7,58.0,30.09,ENE,70,2.0,10.0,52,0.00,,,0.00,765,weatherlink.com 1.10,2013-03-11 16:04:00,
2013-03-11 12:19:00,77.8,58.0,30.08,WSW,243,4.0,10.0,51,0.00,,,0.00,872,weatherlink.com 1.10,2013-03-11 16:19:00,
2013-03-11 12:34:00,79.1,59.0,30.08,SSE,147,5.0,8.0,50,0.00,,,0.00,898,weatherlink.com 1.10,2013-03-11 16:34:00,
2013-03-11 12:49:00,77.7,58.0,30.08,SSW,197,4.0,14.0,51,0.00,,,0.00,332,weatherlink.com 1.10,2013-03-11 16:49:00,
2013-03-11 13:04:00,77.7,58.0,30.08,South,172,3.0,8.0,51,0.00,,,0.00,320,weatherlink.com 1.10,2013-03-11 17:04:00,
2013-03-11 13:19:00,77.7,59.0,30.07,West,259,2.0,8.0,52,0.00,,,0.00,301,weatherlink.com 1.10,2013-03-11 17:19:00,
2013-03-11 13:34:00,78.8,59.0,30.07,SSW,201,2.0,7.0,51,0.00,,,0.00,933,weatherlink.com 1.10,2013-03-11 17:34:00,
2013-03-11 13:50:00,77.9,59.0,30.06,East,80,2.0,7.0,53,0.00,,,0.00,325,weatherlink.com 1.10,2013-03-11 17:50:00,
2013-03-11 14:06:00,76.7,58.0,30.06,ENE,63,2.0,6.0,53,0.00,,,0.00,292,weatherlink.com 1.10,2013-03-11 18:06:00,
2013-03-11 14:20:00,76.4,58.0,30.06,ENE,77,2.0,6.0,54,0.00,,,0.00,213,weatherlink.com 1.10,2013-03-11 18:20:00,
2013-03-11 14:35:00,76.1,59.0,30.05,ENE,58,3.0,8.0,55,0.00,,,0.00,408,weatherlink.com 1.10,2013-03-11 18:35:00,
2013-03-11 14:50:00,77.5,59.0,30.05,South,179,5.0,8.0,54,0.00,,,0.00,255,weatherlink.com 1.10,2013-03-11 18:50:00,
2013-03-11 15:05:00,76.6,60.0,30.04,ESE,112,4.0,9.0,56,0.00,,,0.00,459,weatherlink.com 1.10,2013-03-11 19:05:00,
2013-03-11 15:20:00,75.8,59.0,30.04,SE,140,2.0,8.0,57,0.00,,,0.00,243,weatherlink.com 1.10,2013-03-11 19:20:00,
2013-03-11 15:35:00,75.5,60.0,30.03,SW,225,4.0,7.0,59,0.00,,,0.00,362,weatherlink.com 1.10,2013-03-11 19:35:00,
2013-03-11 16:06:00,76.9,61.0,30.00,SE,130,3.0,7.0,59,0.00,,,0.00,684,weatherlink.com 1.10,2013-03-11 20:06:00,
2013-03-11 16:22:00,77.4,62.0,30.00,SSW,205,4.0,7.0,59,0.00,,,0.00,241,weatherlink.com 1.10,2013-03-11 20:22:00,
2013-03-11 16:36:00,76.8,62.0,30.00,SSW,201,6.0,12.0,60,0.00,,,0.00,216,weatherlink.com 1.10,2013-03-11 20:36:00,
2013-03-11 16:52:00,76.1,62.0,29.99,East,87,2.0,7.0,61,0.00,,,0.00,267,weatherlink.com 1.10,2013-03-11 20:52:00,
2013-03-11 17:06:00,75.4,61.0,29.99,ESE,120,2.0,7.0,62,0.00,,,0.00,204,weatherlink.com 1.10,2013-03-11 21:06:00,
2013-03-11 17:36:00,74.4,61.0,29.98,South,182,4.0,10.0,64,0.00,,,0.00,116,weatherlink.com 1.10,2013-03-11 21:36:00,
2013-03-11 17:52:00,73.9,61.0,29.98,ESE,117,4.0,6.0,65,0.00,,,0.00,134,weatherlink.com 1.10,2013-03-11 21:52:00,
2013-03-11 18:07:00,73.3,61.0,29.98,SW,228,2.0,6.0,66,0.00,,,0.00,58,weatherlink.com 1.10,2013-03-11 22:07:00,
2013-03-11 18:22:00,72.4,61.0,29.99,ESE,112,2.0,7.0,68,0.00,,,0.00,72,weatherlink.com 1.10,2013-03-11 22:22:00,
2013-03-11 18:37:00,72.2,61.0,29.99,East,87,1.0,6.0,69,0.00,,,0.00,77,weatherlink.com 1.10,2013-03-11 22:37:00,
2013-03-11 18:52:00,71.9,61.0,29.99,NW,313,2.0,7.0,69,0.00,,,0.00,33,weatherlink.com 1.10,2013-03-11 22:52:00,
2013-03-11 19:07:00,71.3,61.0,29.98,SSE,148,1.0,5.0,71,0.00,,,0.00,11,weatherlink.com 1.10,2013-03-11 23:07:00,
2013-03-11 19:22:00,70.8,62.0,29.99,SE,125,4.0,10.0,73,0.00,,,0.00,0,weatherlink.com 1.10,2013-03-11 23:22:00,
2013-03-11 19:37:00,70.5,61.0,29.99,SW,215,0.0,8.0,73,0.00,,,0.00,0,weatherlink.com 1.10,2013-03-11 23:37:00,
2013-03-11 19:53:00,70.1,61.0,29.98,NNE,17,1.0,6.0,74,0.00,,,0.00,0,weatherlink.com 1.10,2013-03-11 23:53:00,
2013-03-11 20:08:00,69.8,61.0,29.98,West,264,0.0,10.0,74,0.00,,,0.00,0,weatherlink.com 1.10,2013-03-12 00:08:00,
2013-03-11 20:23:00,69.4,61.0,29.98,South,186,1.0,7.0,74,0.00,,,0.00,0,weatherlink.com 1.10,2013-03-12 00:23:00,
2013-03-11 20:38:00,69.1,61.0,29.98,SSE,149,1.0,5.0,75,0.00,,,0.00,0,weatherlink.com 1.10,2013-03-12 00:38:00,
2013-03-11 20:53:00,68.7,60.0,29.98,East,91,3.0,8.0,74,0.00,,,0.00,0,weatherlink.com 1.10,2013-03-12 00:53:00,
2013-03-11 21:08:00,68.4,60.0,29.98,SSW,205,0.0,5.0,75,0.00,,,0.00,0,weatherlink.com 1.10,2013-03-12 01:08:00,
2013-03-11 21:23:00,68.2,60.0,29.99,East,91,0.0,4.0,75,0.00,,,0.00,0,weatherlink.com 1.10,2013-03-12 01:23:00,
2013-03-11 21:38:00,68.0,60.0,29.99,SE,132,2.0,4.0,75,0.00,,,0.00,0,weatherlink.com 1.10,2013-03-12 01:38:00,
2013-03-11 21:53:00,67.9,60.0,30.00,South,172,2.0,4.0,75,0.00,,,0.00,0,weatherlink.com 1.10,2013-03-12 01:53:00,
2013-03-11 22:08:00,67.6,60.0,30.01,SSW,202,2.0,6.0,76,0.00,,,0.00,0,weatherlink.com 1.10,2013-03-12 02:08:00,
2013-03-11 22:23:00,67.2,60.0,30.02,WSW,240,1.0,4.0,77,0.00,,,0.00,0,weatherlink.com 1.10,2013-03-12 02:23:00,
2013-03-11 22:39:00,66.8,60.0,30.02,SSW,209,1.0,3.0,78,0.00,,,0.00,0,weatherlink.com 1.10,2013-03-12 02:39:00,
2013-03-11 22:54:00,66.6,60.0,30.02,SW,229,0.0,3.0,79,0.00,,,0.00,0,weatherlink.com 1.10,2013-03-12 02:54:00,
2013-03-11 23:10:00,66.8,60.0,30.01,South,176,0.0,4.0,79,0.00,,,0.00,0,weatherlink.com 1.10,2013-03-12 03:10:00,
2013-03-11 23:24:00,66.7,60.0,30.02,SSE,160,0.0,4.0,79,0.00,,,0.00,0,weatherlink.com 1.10,2013-03-12 03:24:00,
2013-03-11 23:39:00,66.4,60.0,30.01,SSW,200,1.0,5.0,80,0.00,,,0.00,0,weatherlink.com 1.10,2013-03-12 03:39:00,
2013-03-11 23:54:00,66.3,60.0,30.02,SSE,163,0.0,6.0,80,0.00,,,0.00,0,weatherlink.com 1.10,2013-03-12 03:54:00,